KWRB METAR and TAF | Updated Today

KWRB METAR

Robins Air Force Base

Observation time: 17 min. ago

KWRB 301756Z AUTO 27003KT 9SM CLR 17/M07 A3019 RMK AO2 SLP227 T01691069 10171 21015 57021

Need help? Read our tutorial on how to read METARs or read the parsed version below.

Robins Air Force Base (KWRB) METAR

  • Weather conditions on Tue, 30 Nov 2021 17:56:00 +0000 (17 min. ago):
  • Present conditions: Dry
  • Clouds: Clear skies
  • Visibility: 14484 meters
  • Wind: 270 degrees at 3 knots
  • Temperature: 17 celsius
  • Dew point: -7 celsius
  • Pressure: 30.19 inHg
  • Remarks: AO2 SLP227 T01691069 10171 21015 57021


Useful to know...

KWRB TAF

Robins Air Force Base

TAF KWRB 301700Z 3017/0123 VRB06KT 9999 FEW250 QNH3015INS TX16/3020Z TNM02/0110Z
Observation time: 73 min. ago
Need help? Read our tutorial on how to read TAFs or read the parsed version below.

Parsed version of TAF for Robins Air Force Base (KWRB)

  • From 30 November at 17:00 UTC, to day 01 of the month at 23:00 UTC
  • Clouds: A few at 7620 meters
  • Visibility: Greater than 10 km
  • Wind: Variable at 6

Airports near KWRB

KDBN Weather
Region: Dublin

W H 'Bud' Barron Airport

Not found in our database
KMCN Weather
IATA: MCN
Region: Macon

Middle Georgia Regional Airport

Found in our database